createdAt,value
2017-06-01T00:00:59.300Z,69.90
2017-06-01T00:03:28.072Z,70.80
2017-06-01T00:05:56.868Z,71.50
2017-06-01T00:08:25.649Z,72.50
2017-06-01T00:10:54.424Z,72.20
2017-06-01T00:13:23.252Z,73.10
2017-06-01T00:15:52.016Z,72.70
2017-06-01T00:18:20.784Z,71.60
2017-06-01T00:20:50.507Z,71.80
2017-06-01T00:23:20.287Z,72.10
2017-06-01T00:25:50.044Z,71.80
2017-06-01T00:28:19.808Z,71.50
2017-06-01T00:30:48.588Z,70.70
2017-06-01T00:33:17.392Z,70.90
2017-06-01T00:35:46.164Z,71.50
2017-06-01T00:38:14.940Z,71.90
2017-06-01T00:40:43.724Z,72.50
2017-06-01T00:43:12.496Z,73.10
2017-06-01T00:45:41.271Z,72.50
2017-06-01T00:48:10.087Z,72.40
2017-06-01T00:50:38.863Z,72.30
2017-06-01T00:53:07.635Z,73.30
2017-06-01T00:55:36.423Z,74.10
2017-06-01T00:58:05.208Z,74.30
2017-06-01T01:00:33.987Z,73.80
2017-06-01T01:03:02.787Z,74.00
2017-06-01T01:05:31.575Z,74.40
2017-06-01T01:08:00.375Z,75.50
2017-06-01T01:10:29.167Z,75.60
2017-06-01T01:12:57.951Z,76.20
2017-06-01T01:15:27.695Z,74.80
2017-06-01T01:17:56.547Z,73.20
2017-06-01T01:20:25.347Z,72.40
2017-06-01T01:22:54.127Z,73.10
2017-06-01T01:25:24.923Z,73.20
2017-06-01T01:27:53.695Z,73.30
2017-06-01T01:30:22.471Z,73.40
2017-06-01T01:32:51.270Z,73.60
2017-06-01T01:35:20.043Z,74.20
2017-06-01T01:37:48.843Z,73.30
2017-06-01T01:40:17.619Z,71.90
2017-06-01T01:42:46.407Z,72.40
2017-06-01T01:45:15.187Z,72.90
2017-06-01T01:47:44.006Z,73.70
2017-06-01T01:50:12.787Z,73.20
2017-06-01T01:52:45.587Z,72.90
2017-06-01T01:55:14.362Z,72.70
2017-06-01T01:57:43.134Z,72.40
2017-06-01T02:00:11.931Z,72.30
2017-06-01T02:02:40.719Z,71.70
2017-06-01T02:05:09.495Z,70.60
2017-06-01T02:07:38.303Z,72.60
2017-06-01T02:10:07.075Z,72.50
2017-06-01T02:12:35.850Z,72.80
2017-06-01T02:15:05.563Z,73.70
2017-06-01T02:17:34.351Z,73.40
2017-06-01T02:20:03.201Z,73.30
2017-06-01T02:22:31.146Z,73.10
2017-06-01T02:24:59.922Z,73.60
2017-06-01T02:27:30.626Z,73.40
2017-06-01T02:29:59.454Z,73.70
2017-06-01T02:32:29.226Z,73.00
2017-06-01T02:34:58.009Z,71.70
2017-06-01T02:37:27.746Z,71.80
2017-06-01T02:39:56.523Z,73.60
2017-06-01T02:42:25.311Z,73.20
2017-06-01T02:44:54.106Z,75.20
2017-06-01T02:47:23.802Z,75.50
2017-06-01T02:49:52.578Z,75.20
2017-06-01T02:52:22.334Z,75.20
2017-06-01T02:54:51.121Z,75.60
2017-06-01T02:57:19.894Z,73.90
2017-06-01T02:59:48.679Z,73.30
2017-06-01T03:02:17.498Z,73.00
2017-06-01T03:04:46.386Z,73.00
2017-06-01T03:07:15.170Z,73.50
2017-06-01T03:09:43.938Z,73.80
2017-06-01T03:12:13.718Z,73.90
2017-06-01T03:14:42.553Z,73.00
2017-06-01T03:17:12.325Z,73.30
2017-06-01T03:19:41.157Z,73.70
2017-06-01T03:22:09.933Z,74.50
2017-06-01T03:24:38.749Z,74.40
2017-06-01T03:27:07.626Z,75.20
2017-06-01T03:29:36.516Z,75.80
2017-06-01T03:32:05.290Z,75.50
2017-06-01T03:34:34.081Z,75.50
2017-06-01T03:37:03.026Z,75.80
2017-06-01T03:39:31.813Z,75.80
2017-06-01T03:42:00.593Z,76.20
2017-06-01T03:44:29.421Z,76.00
2017-06-01T03:46:58.207Z,76.20
2017-06-01T03:49:26.973Z,74.50
2017-06-01T03:51:55.777Z,74.90
2017-06-01T03:54:24.573Z,74.70
2017-06-01T03:56:53.393Z,74.90
2017-06-01T03:59:22.197Z,74.40
2017-06-01T04:01:50.970Z,74.70
2017-06-01T04:04:19.741Z,73.70
2017-06-01T04:06:48.645Z,73.80
2017-06-01T04:09:19.909Z,73.80
2017-06-01T04:11:50.014Z,74.90
2017-06-01T04:14:19.693Z,74.40
2017-06-01T04:16:48.913Z,73.90
2017-06-01T04:19:17.817Z,75.20
2017-06-01T04:21:46.685Z,76.30
2017-06-01T04:24:15.473Z,75.10
2017-06-01T04:26:44.369Z,74.40
2017-06-01T04:29:13.257Z,74.10
2017-06-01T04:31:42.029Z,75.00
2017-06-01T04:34:10.829Z,74.70
2017-06-01T04:36:39.601Z,75.40
2017-06-01T04:39:08.384Z,75.30
2017-06-01T04:41:37.176Z,75.10
2017-06-01T04:44:05.956Z,75.00
2017-06-01T04:46:34.736Z,74.90
2017-06-01T04:49:03.556Z,75.90
2017-06-01T04:51:32.441Z,75.70
2017-06-01T04:54:01.240Z,75.30
2017-06-01T04:56:30.056Z,75.70
2017-06-01T04:58:59.308Z,75.80
2017-06-01T05:01:28.092Z,76.20
2017-06-01T05:03:57.368Z,75.30
2017-06-01T05:06:26.149Z,75.40
2017-06-01T05:08:54.932Z,75.30
2017-06-01T05:11:23.877Z,75.30
2017-06-01T05:13:52.668Z,76.00
2017-06-01T05:16:21.456Z,75.60
2017-06-01T05:18:50.352Z,75.90
2017-06-01T05:21:19.232Z,75.40
2017-06-01T05:23:48.017Z,75.00
2017-06-01T05:26:16.820Z,73.10
2017-06-01T05:28:45.712Z,71.20
2017-06-01T05:31:14.624Z,70.20
2017-06-01T05:33:43.404Z,70.00
2017-06-01T05:36:12.264Z,69.40
2017-06-01T05:38:41.036Z,67.80
2017-06-01T05:41:09.832Z,66.50
2017-06-01T05:43:38.635Z,66.40
2017-06-01T05:46:07.495Z,66.60
2017-06-01T05:48:36.300Z,66.50
2017-06-01T05:51:05.080Z,67.50
2017-06-01T05:53:33.851Z,67.80
2017-06-01T05:56:02.628Z,67.90
2017-06-01T05:58:31.472Z,67.10
2017-06-01T06:01:00.355Z,66.00
2017-06-01T06:03:29.156Z,65.00
2017-06-01T06:05:58.029Z,63.80
2017-06-01T06:08:26.787Z,63.50
2017-06-01T06:10:55.592Z,64.20
2017-06-01T06:13:24.379Z,63.00
2017-06-01T06:15:54.077Z,62.30
2017-06-01T06:18:22.879Z,61.40
2017-06-01T06:20:51.647Z,63.20
2017-06-01T06:23:20.456Z,62.80
2017-06-01T06:25:49.340Z,61.50
2017-06-01T06:28:18.127Z,61.70
2017-06-01T06:30:47.012Z,60.00
2017-06-01T06:33:15.804Z,59.60
2017-06-01T06:35:44.580Z,59.60
2017-06-01T06:38:13.347Z,60.00
2017-06-01T06:40:42.135Z,58.10
2017-06-01T06:43:10.899Z,58.80
2017-06-01T06:45:40.224Z,57.90
2017-06-01T06:48:09.039Z,58.80
2017-06-01T06:50:37.795Z,57.10
2017-06-01T06:53:06.559Z,56.80
2017-06-01T06:55:35.403Z,56.70
2017-06-01T06:58:04.179Z,56.10
2017-06-01T07:00:32.943Z,55.70
2017-06-01T07:03:01.720Z,56.90
2017-06-01T07:05:30.491Z,56.50
2017-06-01T07:07:59.251Z,55.60
2017-06-01T07:10:28.059Z,55.50
2017-06-01T07:12:56.814Z,53.60
2017-06-01T07:15:25.590Z,54.70
2017-06-01T07:17:54.379Z,55.00
2017-06-01T07:20:23.175Z,54.20
2017-06-01T07:22:51.939Z,53.30
2017-06-01T07:25:20.731Z,53.20
2017-06-01T07:27:49.495Z,53.70
2017-06-01T07:30:18.255Z,53.20
2017-06-01T07:32:47.100Z,53.70
2017-06-01T07:35:15.805Z,53.40
2017-06-01T07:37:44.563Z,52.80
2017-06-01T07:40:13.331Z,52.10
2017-06-01T07:42:42.091Z,51.60
2017-06-01T07:45:10.851Z,52.00
2017-06-01T07:47:39.731Z,51.60
2017-06-01T07:50:08.462Z,50.70
2017-06-01T07:52:37.224Z,51.20
2017-06-01T07:55:05.991Z,50.90
2017-06-01T07:57:34.766Z,50.30
2017-06-01T08:00:03.538Z,51.00
2017-06-01T08:02:32.334Z,50.80
2017-06-01T08:05:01.095Z,51.40
2017-06-01T08:07:29.854Z,51.20
2017-06-01T08:09:58.622Z,50.60
2017-06-01T08:12:27.387Z,50.90
2017-06-01T08:14:56.147Z,50.30
2017-06-01T08:17:24.918Z,47.90
2017-06-01T08:19:53.682Z,47.90
2017-06-01T08:22:22.446Z,47.40
2017-06-01T08:24:51.222Z,47.30
2017-06-01T08:27:19.978Z,47.00
2017-06-01T08:29:48.742Z,46.50
2017-06-01T08:32:17.519Z,46.00
2017-06-01T08:34:46.286Z,45.80
2017-06-01T08:37:15.045Z,45.30
2017-06-01T08:39:43.838Z,46.10
2017-06-01T08:42:12.646Z,44.20
2017-06-01T08:44:41.435Z,44.80
2017-06-01T08:47:10.182Z,44.60
2017-06-01T08:49:39.014Z,44.90
2017-06-01T08:52:07.746Z,44.70
2017-06-01T08:54:36.522Z,44.90
2017-06-01T08:57:05.282Z,44.60
2017-06-01T08:59:34.048Z,43.50
2017-06-01T09:02:02.821Z,43.60
2017-06-01T09:04:31.585Z,43.60
2017-06-01T09:07:00.350Z,43.00
2017-06-01T09:09:29.142Z,43.40
2017-06-01T09:11:57.913Z,43.10
2017-06-01T09:14:26.670Z,43.00
2017-06-01T09:16:55.478Z,43.60
2017-06-01T09:19:24.257Z,43.20
2017-06-01T09:21:53.005Z,43.30
2017-06-01T09:24:21.773Z,43.10
2017-06-01T09:26:50.538Z,43.00
2017-06-01T09:29:19.306Z,43.00
2017-06-01T09:31:48.113Z,43.60
2017-06-01T09:34:16.878Z,43.10
2017-06-01T09:36:45.649Z,43.00
2017-06-01T09:39:13.661Z,43.00
2017-06-01T09:41:42.425Z,43.40
2017-06-01T09:44:11.185Z,43.00
2017-06-01T09:46:40.004Z,41.90
2017-06-01T09:49:08.769Z,41.90
2017-06-01T09:51:37.541Z,41.50
2017-06-01T09:54:06.325Z,42.30
2017-06-01T09:56:35.089Z,42.10
2017-06-01T09:59:03.853Z,42.30
2017-06-01T10:01:32.665Z,42.10
2017-06-01T10:04:01.428Z,40.70
2017-06-01T10:06:30.197Z,40.10
2017-06-01T10:08:58.977Z,40.40
2017-06-01T10:11:27.773Z,41.40
2017-06-01T10:13:56.512Z,40.80
2017-06-01T10:16:25.301Z,40.40
2017-06-01T10:18:53.310Z,40.30
2017-06-01T10:21:22.076Z,39.10
2017-06-01T10:23:51.796Z,41.70
2017-06-01T10:26:20.565Z,40.80
2017-06-01T10:28:49.340Z,38.90
2017-06-01T10:31:18.125Z,39.00
2017-06-01T10:33:46.892Z,39.40
2017-06-01T10:36:15.661Z,39.30
2017-06-01T10:38:44.456Z,37.50
2017-06-01T10:41:13.228Z,38.00
2017-06-01T10:43:41.993Z,40.00
2017-06-01T10:46:10.788Z,39.50
2017-06-01T10:48:39.556Z,39.50
2017-06-01T10:51:08.348Z,38.00
2017-06-01T10:53:37.145Z,38.10
2017-06-01T10:56:05.912Z,37.90
2017-06-01T10:58:34.676Z,38.70
2017-06-01T11:01:03.472Z,38.10
2017-06-01T11:03:32.316Z,37.80
2017-06-01T11:06:01.060Z,38.90
2017-06-01T11:08:29.860Z,39.60
2017-06-01T11:10:58.628Z,38.40
2017-06-01T11:13:27.464Z,36.90
2017-06-01T11:15:56.232Z,37.00
2017-06-01T11:18:25.004Z,38.30
2017-06-01T11:20:53.748Z,38.30
2017-06-01T11:23:22.528Z,37.80
2017-06-01T11:25:51.295Z,37.20
2017-06-01T11:28:20.060Z,37.50
2017-06-01T11:30:48.852Z,37.40
2017-06-01T11:33:17.619Z,36.20
2017-06-01T11:35:46.385Z,35.50
2017-06-01T11:38:15.184Z,37.40
2017-06-01T11:40:43.952Z,38.70
2017-06-01T11:43:12.727Z,38.30
2017-06-01T11:45:41.503Z,38.20
2017-06-01T11:48:10.272Z,38.00
2017-06-01T11:50:39.035Z,36.90
2017-06-01T11:53:07.827Z,35.60
2017-06-01T11:55:36.591Z,36.80
2017-06-01T11:58:05.355Z,37.90
2017-06-01T12:00:34.144Z,37.40
2017-06-01T12:03:03.012Z,35.50
2017-06-01T12:05:31.759Z,36.90
2017-06-01T12:08:00.551Z,37.60
2017-06-01T12:10:29.316Z,37.20
2017-06-01T12:12:58.087Z,38.90
2017-06-01T12:15:26.868Z,37.40
2017-06-01T12:17:55.635Z,36.60
2017-06-01T12:20:24.404Z,36.80
2017-06-01T12:22:53.187Z,36.90
2017-06-01T12:25:21.947Z,36.10
2017-06-01T12:27:50.715Z,34.70
2017-06-01T12:30:19.515Z,35.40
2017-06-01T12:32:48.279Z,35.30
2017-06-01T12:35:17.064Z,36.60
2017-06-01T12:37:45.856Z,36.80
2017-06-01T12:40:14.620Z,36.60
2017-06-01T12:42:43.404Z,35.90
2017-06-01T12:45:12.199Z,36.70
2017-06-01T12:47:40.964Z,36.40
2017-06-01T12:50:09.723Z,37.40
2017-06-01T12:52:38.512Z,36.40
2017-06-01T12:55:07.271Z,36.70
2017-06-01T12:57:36.034Z,36.80
2017-06-01T13:00:09.527Z,36.30
2017-06-01T13:02:38.299Z,35.70
2017-06-01T13:05:07.067Z,35.10
2017-06-01T13:07:35.846Z,35.40
2017-06-01T13:10:04.611Z,35.50
2017-06-01T13:12:33.379Z,35.90
2017-06-01T13:15:02.380Z,36.30
2017-06-01T13:17:31.146Z,36.20
2017-06-01T13:19:59.910Z,36.70
2017-06-01T13:22:28.723Z,37.10
2017-06-01T13:24:57.438Z,35.40
2017-06-01T13:27:26.206Z,35.60
2017-06-01T13:29:54.990Z,36.80
2017-06-01T13:32:23.755Z,33.20
2017-06-01T13:34:52.527Z,32.20
2017-06-01T13:37:21.314Z,32.50
2017-06-01T13:39:50.079Z,32.50
2017-06-01T13:42:18.842Z,33.20
2017-06-01T13:44:47.634Z,33.20
2017-06-01T13:47:16.407Z,33.10
2017-06-01T13:49:45.222Z,33.40
2017-06-01T13:52:13.939Z,34.00
2017-06-01T13:54:42.706Z,33.30
2017-06-01T13:57:11.471Z,32.50
2017-06-01T13:59:40.242Z,32.80
2017-06-01T14:02:09.122Z,33.00
2017-06-01T14:04:37.850Z,33.00
2017-06-01T14:07:06.619Z,32.70
2017-06-01T14:09:36.366Z,32.60
2017-06-01T14:12:05.129Z,31.30
2017-06-01T14:14:34.042Z,31.30
2017-06-01T14:17:02.814Z,30.90
2017-06-01T14:19:31.574Z,32.00
2017-06-01T14:22:00.346Z,30.50
2017-06-01T14:24:29.118Z,31.40
2017-06-01T14:26:57.878Z,32.40
2017-06-01T14:29:26.713Z,32.30
2017-06-01T14:31:55.414Z,31.60
2017-06-01T14:34:24.179Z,30.80
2017-06-01T14:36:52.954Z,31.50
2017-06-01T14:39:21.722Z,30.90
2017-06-01T14:41:50.482Z,32.10
2017-06-01T14:44:19.278Z,31.60
2017-06-01T14:46:48.050Z,31.40
2017-06-01T14:49:16.834Z,32.40
2017-06-01T14:51:45.606Z,31.10
2017-06-01T14:54:14.365Z,32.00
2017-06-01T14:56:43.126Z,31.70
2017-06-01T14:59:11.898Z,32.40
2017-06-01T15:01:40.658Z,32.70
2017-06-01T15:04:09.431Z,32.60
2017-06-01T15:06:38.241Z,32.70
2017-06-01T15:09:07.009Z,32.60
2017-06-01T15:11:35.778Z,31.90
2017-06-01T15:14:04.569Z,32.50
2017-06-01T15:16:33.337Z,32.00
2017-06-01T15:19:02.113Z,32.10
2017-06-01T15:21:31.041Z,31.70
2017-06-01T15:23:59.765Z,33.00
2017-06-01T15:26:28.540Z,32.80
2017-06-01T15:28:57.405Z,33.50
2017-06-01T15:31:26.169Z,32.40
2017-06-01T15:33:54.945Z,32.30
2017-06-01T15:36:23.870Z,32.80
2017-06-01T15:38:52.591Z,32.70
2017-06-01T15:41:21.361Z,33.00
2017-06-01T15:43:50.149Z,33.30
2017-06-01T15:46:18.920Z,32.80
2017-06-01T15:48:47.693Z,32.10
2017-06-01T15:51:16.477Z,33.70
2017-06-01T15:53:45.237Z,32.80
2017-06-01T15:56:13.997Z,33.60
2017-06-01T15:58:42.785Z,32.80
2017-06-01T16:17:12.380Z,41.50
2017-06-01T16:19:41.185Z,36.70
2017-06-01T16:22:09.960Z,38.50
2017-06-01T16:24:38.765Z,38.40
2017-06-01T16:27:07.512Z,36.90
2017-06-01T16:29:36.284Z,38.20
2017-06-01T16:32:05.061Z,37.30
2017-06-01T16:34:33.820Z,37.00
2017-06-01T16:37:02.588Z,38.00
2017-06-01T16:39:31.368Z,36.80
2017-06-01T16:42:00.145Z,36.00
2017-06-01T16:44:28.904Z,36.40
2017-06-01T16:46:57.704Z,37.50
2017-06-01T16:49:26.476Z,37.50
2017-06-01T16:51:55.505Z,36.70
2017-06-01T16:54:24.272Z,37.10
2017-06-01T16:56:53.040Z,37.80
2017-06-01T17:11:58.359Z,37.60
2017-06-01T17:14:27.131Z,37.30
2017-06-01T17:16:55.907Z,38.00
2017-06-01T17:19:24.691Z,37.30
2017-06-01T17:21:53.461Z,36.90
2017-06-01T17:24:22.232Z,37.20
2017-06-01T17:26:51.018Z,37.80
2017-06-01T17:29:19.789Z,38.10
2017-06-01T17:31:48.568Z,38.00
2017-06-01T17:34:17.375Z,38.10
2017-06-01T17:36:46.112Z,38.00
2017-06-01T17:39:14.879Z,37.90
2017-06-01T17:41:43.652Z,38.30
2017-06-01T17:44:12.415Z,38.80
2017-06-01T17:46:41.188Z,38.20
2017-06-01T17:49:09.999Z,39.20
2017-06-01T17:51:38.731Z,38.90
2017-06-01T17:54:07.495Z,39.00
2017-06-01T17:56:36.279Z,39.20
2017-06-01T17:59:05.056Z,39.30
2017-06-01T18:01:33.815Z,40.00
2017-06-01T18:04:02.603Z,40.00
2017-06-01T18:06:31.379Z,40.20
2017-06-01T18:09:00.151Z,39.90
2017-06-01T18:11:28.948Z,40.10
2017-06-01T18:13:57.791Z,40.20
2017-06-01T18:16:26.559Z,41.00
2017-06-01T18:18:55.339Z,40.90
2017-06-01T18:21:24.103Z,40.90
2017-06-01T18:23:52.911Z,41.00
2017-06-01T18:26:21.703Z,40.80
2017-06-01T18:28:50.487Z,41.10
2017-06-01T18:31:19.251Z,41.40
2017-06-01T18:33:48.051Z,41.80
2017-06-01T18:36:16.823Z,42.00
2017-06-01T18:38:45.604Z,42.00
2017-06-01T18:41:14.391Z,42.00
2017-06-01T18:43:43.148Z,42.60
2017-06-01T18:46:11.911Z,42.80
2017-06-01T18:48:40.698Z,43.30
2017-06-01T18:51:09.466Z,43.20
2017-06-01T18:53:38.238Z,43.40
2017-06-01T18:56:07.038Z,43.40
2017-06-01T18:58:35.847Z,43.70
2017-06-01T19:01:04.646Z,43.70
2017-06-01T19:03:33.439Z,43.80
2017-06-01T19:06:02.211Z,44.20
2017-06-01T19:08:30.978Z,45.30
2017-06-01T19:10:59.751Z,44.70
2017-06-01T19:13:29.382Z,44.90
2017-06-01T19:15:58.179Z,45.20
2017-06-01T19:18:26.974Z,45.40
2017-06-01T19:20:55.735Z,45.80
2017-06-01T19:23:24.511Z,46.00
2017-06-01T19:25:53.279Z,46.30
2017-06-01T19:28:22.106Z,46.40
2017-06-01T19:30:50.854Z,46.50
2017-06-01T19:33:19.634Z,46.60
2017-06-01T19:35:48.394Z,46.70
2017-06-01T19:38:17.990Z,47.30
2017-06-01T19:40:46.783Z,47.10
2017-06-01T19:43:15.558Z,48.00
2017-06-01T19:45:45.218Z,48.10
2017-06-01T19:48:14.010Z,48.30
2017-06-01T20:12:53.001Z,50.20
2017-06-01T20:15:22.774Z,50.40
2017-06-01T20:17:51.550Z,50.10
2017-06-01T20:20:20.329Z,50.20
2017-06-01T20:22:49.106Z,50.20
2017-06-01T20:25:17.871Z,50.70
2017-06-01T20:27:46.669Z,49.90
2017-06-01T20:30:15.434Z,49.80
2017-06-01T20:32:46.125Z,49.90
2017-06-01T20:35:14.941Z,49.60
2017-06-01T20:37:43.710Z,49.60
2017-06-01T20:40:12.517Z,49.50
2017-06-01T20:42:41.289Z,50.30
2017-06-01T20:45:10.066Z,49.80
2017-06-01T20:47:38.853Z,50.10
2017-06-01T20:50:07.637Z,50.00
2017-06-01T20:52:36.429Z,50.00
2017-06-01T20:55:05.181Z,50.00
2017-06-01T20:57:33.957Z,50.20
2017-06-01T21:00:02.770Z,50.20
2017-06-01T21:02:31.529Z,50.50
2017-06-01T21:05:00.305Z,50.50
2017-06-01T21:07:32.505Z,50.40
2017-06-01T21:10:01.313Z,50.40
2017-06-01T21:12:30.089Z,51.70
2017-06-01T21:14:58.869Z,55.50
2017-06-01T21:17:30.417Z,57.40
2017-06-01T21:19:59.201Z,59.10
2017-06-01T21:22:27.989Z,59.60
2017-06-01T21:24:56.801Z,59.40
2017-06-01T21:27:25.601Z,58.20
2017-06-01T21:29:54.373Z,56.60
2017-06-01T21:32:23.177Z,55.60
2017-06-01T21:34:51.977Z,54.60
2017-06-01T21:37:20.765Z,53.90
2017-06-01T21:39:50.469Z,55.40
2017-06-01T21:42:21.165Z,57.40
2017-06-01T21:44:49.933Z,58.90
2017-06-01T21:47:18.705Z,59.40
2017-06-01T21:49:47.525Z,60.00
2017-06-01T21:52:16.313Z,60.00
2017-06-01T21:54:45.077Z,59.50
2017-06-01T21:57:13.864Z,59.40
2017-06-01T21:59:42.641Z,59.40
2017-06-01T22:02:11.404Z,58.70
2017-06-01T22:04:40.185Z,58.50
2017-06-01T22:07:13.892Z,57.90
2017-06-01T22:09:42.680Z,59.20
2017-06-01T22:12:13.356Z,62.00
2017-06-01T22:14:42.146Z,62.50
2017-06-01T22:17:10.916Z,63.40
2017-06-01T22:19:42.744Z,63.80
2017-06-01T22:22:11.516Z,63.70
2017-06-01T22:24:40.296Z,63.50
2017-06-01T22:27:09.100Z,63.80
2017-06-01T22:29:37.872Z,64.90
2017-06-01T22:32:06.648Z,65.50
2017-06-01T22:34:35.449Z,66.20
2017-06-01T22:37:04.228Z,67.60
2017-06-01T22:39:33.009Z,67.20
2017-06-01T22:42:01.812Z,65.30
2017-06-01T22:44:30.597Z,64.40
2017-06-01T22:46:59.364Z,63.00
2017-06-01T22:49:29.076Z,63.50
2017-06-01T22:51:58.743Z,65.10
2017-06-01T22:54:27.516Z,64.10
2017-06-01T22:56:56.304Z,64.50
2017-06-01T22:59:25.079Z,63.50
2017-06-01T23:01:53.859Z,64.50
2017-06-01T23:04:23.615Z,65.10
2017-06-01T23:06:55.840Z,67.10
2017-06-01T23:09:25.543Z,67.10
2017-06-01T23:11:54.328Z,67.10
2017-06-01T23:14:23.099Z,66.90
2017-06-01T23:16:54.943Z,67.00
2017-06-01T23:19:23.712Z,68.00
2017-06-01T23:21:53.523Z,68.30
2017-06-01T23:24:22.299Z,67.50
2017-06-01T23:26:53.055Z,68.80
2017-06-01T23:29:22.780Z,68.30
2017-06-01T23:31:53.259Z,68.30
2017-06-01T23:34:25.455Z,67.90
2017-06-01T23:36:55.159Z,66.60
2017-06-01T23:39:25.919Z,67.50
2017-06-01T23:42:00.603Z,67.80
2017-06-01T23:44:30.359Z,68.60
2017-06-01T23:46:59.131Z,68.40
2017-06-01T23:49:27.907Z,69.60
2017-06-01T23:52:03.495Z,69.20
2017-06-01T23:54:32.275Z,69.60
2017-06-01T23:57:01.055Z,69.70
2017-06-01T23:59:33.399Z,69.50
